Delano, Tennessee
Current Conditions -  °F | °C
As of 10:15 AM on Friday 31 Oct 2014 (Local Time) from KMMI Reporting Station
Broken Clouds Broken Clouds  
Wind Chill: 46°   Ceiling: 7000
Heat Index: 46°   Visibility: 10mi
Dew Point: 43°   Wind: 3mph
Humidity: 87%   Direction: 50°NE
Pressure: 30"   Gusts: NA
Location:  35.27°N, 84.55°W
Report Text: KMMI 311415Z AUTO 05003KT 10SM BKN070 BKN120 08/06 A3000 RMK
Loading
Personal Weather Stations






























Interactive Weather Map
Tropical Storm Tracking
New forecast layout! Learn more

10-Day Weather Forecast

Advertisements
Track Severe Weather on mobile